Time;durP1;ratioP1;P1;durP2;ratioP2;P2;SDS_P1;SDS_P2;PMS_P1;PMS_P2;Temp;Humidity;BMP_temperature;BMP_pressure;BME280_temperature;BME280_humidity;BME280_pressure;Samples;Min_cycle;Max_cycle;Signal;HPM_P1;HPM_P2
2022/04/17 00:00:30;;;;;;;1.47;1.37;;;11.40;88.70;;;;;;7384402;19;20532;-76
2022/04/17 00:02:55;;;;;;;1.97;1.30;;;11.40;89.10;;;;;;7386783;19;20134;-79
2022/04/17 00:05:21;;;;;;;2.87;1.57;;;11.40;88.80;;;;;;7383527;19;20532;-77
2022/04/17 00:07:47;;;;;;;1.80;1.50;;;11.30;90.10;;;;;;7384714;19;20222;-78
2022/04/17 00:10:13;;;;;;;3.10;1.77;;;11.30;90.30;;;;;;7385673;19;20582;-77
2022/04/17 00:12:40;;;;;;;3.63;1.60;;;11.20;90.50;;;;;;7386641;19;20134;-77
2022/04/17 00:15:10;;;;;;;3.73;1.80;;;11.30;90.10;;;;;;7384580;19;20142;-78
2022/04/17 00:17:42;;;;;;;1.57;1.40;;;11.30;90.00;;;;;;7383975;19;20174;-77
2022/04/17 00:20:12;;;;;;;1.37;1.27;;;11.20;90.00;;;;;;7385673;19;20864;-76
2022/04/17 00:22:38;;;;;;;1.47;1.37;;;11.30;90.10;;;;;;7384518;19;20135;-77
2022/04/17 00:25:05;;;;;;;1.70;1.57;;;11.20;89.80;;;;;;7385331;19;20169;-78
2022/04/17 00:27:33;;;;;;;2.03;1.57;;;11.20;89.80;;;;;;7383531;19;20153;-76
2022/04/17 00:29:59;;;;;;;2.00;1.30;;;10.70;90.00;;;;;;7384689;19;20142;-77
2022/04/17 00:32:25;;;;;;;1.67;1.57;;;10.80;90.60;;;;;;7387781;19;20159;-77
2022/04/17 00:34:51;;;;;;;2.20;1.40;;;10.90;90.20;;;;;;7385938;19;20155;-77
2022/04/17 00:37:17;;;;;;;1.73;1.60;;;10.90;90.60;;;;;;7395724;19;20777;-77
2022/04/17 00:39:42;;;;;;;1.87;1.50;;;11.00;90.70;;;;;;7398154;19;20236;-76
2022/04/17 00:42:09;;;;;;;2.20;1.47;;;10.80;90.80;;;;;;7394107;19;20211;-77
2022/04/17 00:44:37;;;;;;;1.90;1.50;;;10.80;90.70;;;;;;7393981;19;20138;-78
2022/04/17 00:47:04;;;;;;;2.37;1.70;;;10.80;91.00;;;;;;7394492;19;20139;-76
2022/04/17 00:49:31;;;;;;;3.33;1.80;;;10.90;91.10;;;;;;7392390;19;20147;-77
2022/04/17 00:51:58;;;;;;;2.60;1.50;;;10.60;91.40;;;;;;7396983;19;20135;-77
2022/04/17 00:54:26;;;;;;;1.93;1.40;;;10.60;91.10;;;;;;7392162;19;20158;-77
2022/04/17 00:56:53;;;;;;;2.13;1.63;;;10.60;91.30;;;;;;7390578;19;20180;-76
2022/04/17 00:59:21;;;;;;;2.10;1.60;;;10.60;91.40;;;;;;7394556;19;20149;-78
2022/04/17 01:01:47;;;;;;;1.60;1.33;;;10.40;91.40;;;;;;7394315;19;20312;-77
2022/04/17 01:04:13;;;;;;;2.30;1.50;;;10.40;91.80;;;;;;7391748;19;20200;-76
2022/04/17 01:06:40;;;;;;;1.70;1.60;;;10.30;91.50;;;;;;7390134;19;20146;-78
2022/04/17 01:09:06;;;;;;;2.30;1.53;;;9.70;92.20;;;;;;7394946;19;20213;-77
2022/04/17 01:11:32;;;;;;;1.60;1.43;;;9.80;92.70;;;;;;7395089;19;20250;-77
2022/04/17 01:13:59;;;;;;;2.33;1.40;;;10.10;92.60;;;;;;7392269;19;20130;-76
2022/04/17 01:16:26;;;;;;;1.83;1.33;;;10.10;92.20;;;;;;7393930;19;20139;-77
2022/04/17 01:19:12;;;;;;;3.70;1.53;;;10.00;92.30;;;;;;7394336;19;20138;-76
2022/04/17 01:21:43;;;;;;;2.37;1.37;;;10.00;92.50;;;;;;7392255;19;20134;-76
2022/04/17 01:26:58;;;;;;;2.40;1.53;;;9.90;92.50;;;;;;7390347;19;20707;-77
2022/04/17 01:29:36;;;;;;;3.50;1.50;;;9.70;92.60;;;;;;7389148;19;20153;-76
2022/04/17 01:32:07;;;;;;;2.03;1.40;;;9.70;92.80;;;;;;7392826;19;20138;-76
2022/04/17 01:34:33;;;;;;;1.80;1.23;;;10.00;92.00;;;;;;7397820;19;20234;-76
2022/04/17 01:37:00;;;;;;;2.37;1.40;;;10.20;91.70;;;;;;7389241;19;20142;-76
2022/04/17 01:39:27;;;;;;;2.87;1.67;;;10.30;91.40;;;;;;7393801;19;20239;-77
2022/04/17 01:41:53;;;;;;;2.07;1.40;;;10.30;91.30;;;;;;7394651;19;20597;-76
2022/04/17 01:44:20;;;;;;;2.03;1.50;;;10.30;91.40;;;;;;7390118;19;20134;-76
2022/04/17 01:46:46;;;;;;;2.17;1.57;;;9.70;92.20;;;;;;7394734;19;20166;-76
2022/04/17 01:49:15;;;;;;;1.70;1.40;;;9.80;92.80;;;;;;7388301;19;20513;-77
2022/04/17 01:51:42;;;;;;;2.43;1.43;;;9.80;92.90;;;;;;7390714;19;20250;-77
2022/04/17 01:54:13;;;;;;;2.07;1.47;;;9.90;93.00;;;;;;7390787;19;20150;-76
2022/04/17 01:56:40;;;;;;;3.57;1.40;;;9.80;93.20;;;;;;7393079;19;20134;-76
2022/04/17 01:59:07;;;;;;;2.23;1.40;;;9.80;93.10;;;;;;7392460;19;20226;-78
2022/04/17 02:01:34;;;;;;;4.93;1.50;;;9.80;92.90;;;;;;7396078;19;20135;-76
2022/04/17 02:04:01;;;;;;;1.80;1.43;;;9.70;93.10;;;;;;7391371;19;20127;-77
2022/04/17 02:06:27;;;;;;;1.43;1.27;;;9.50;93.50;;;;;;7391013;19;20131;-77
2022/04/17 02:08:53;;;;;;;1.83;1.40;;;9.40;93.80;;;;;;7393335;19;20498;-76
2022/04/17 02:11:20;;;;;;;1.83;1.50;;;9.50;93.70;;;;;;7390024;19;20496;-78
2022/04/17 02:13:48;;;;;;;2.27;1.60;;;9.40;93.50;;;;;;7392298;19;20626;-78
2022/04/17 02:16:14;;;;;;;2.63;1.30;;;9.50;93.60;;;;;;7395202;19;20496;-78
2022/04/17 02:18:40;;;;;;;2.73;1.47;;;9.40;93.50;;;;;;7393813;19;20162;-77
2022/04/17 02:21:08;;;;;;;2.37;1.50;;;9.00;93.90;;;;;;7390639;19;20614;-75
2022/04/17 02:23:34;;;;;;;2.73;1.60;;;8.80;93.80;;;;;;7394894;19;20494;-77
2022/04/17 02:26:00;;;;;;;2.73;1.90;;;8.50;94.20;;;;;;7390019;19;20141;-77
2022/04/17 02:28:27;;;;;;;2.50;1.50;;;8.60;94.60;;;;;;7392836;19;20182;-77
2022/04/17 02:30:53;;;;;;;2.83;1.60;;;8.90;94.30;;;;;;7389032;19;20154;-76
2022/04/17 02:33:19;;;;;;;1.73;1.60;;;9.00;94.70;;;;;;7389085;19;20163;-77
2022/04/17 02:35:45;;;;;;;2.37;1.57;;;9.10;94.20;;;;;;7387063;19;20489;-78
2022/04/17 02:38:11;;;;;;;2.33;1.37;;;9.30;94.10;;;;;;7387775;19;20591;-77
2022/04/17 02:40:37;;;;;;;2.30;1.50;;;9.50;93.40;;;;;;7391560;19;20214;-77
2022/04/17 02:43:02;;;;;;;4.23;2.20;;;9.10;94.20;;;;;;7393045;19;20619;-76
2022/04/17 02:45:28;;;;;;;1.73;1.40;;;9.20;93.90;;;;;;7394527;19;20146;-76
2022/04/17 02:47:54;;;;;;;3.03;1.77;;;9.30;93.80;;;;;;7397443;19;20153;-76
2022/04/17 02:50:22;;;;;;;2.07;1.47;;;9.30;93.80;;;;;;7389524;19;20653;-75
2022/04/17 02:52:48;;;;;;;1.77;1.30;;;9.30;94.20;;;;;;7388031;19;20512;-76
2022/04/17 02:55:13;;;;;;;2.47;1.77;;;9.10;94.40;;;;;;7388256;19;20146;-77
2022/04/17 02:57:39;;;;;;;2.27;1.50;;;9.00;95.00;;;;;;7387429;19;20222;-75
2022/04/17 03:00:07;;;;;;;3.33;1.60;;;8.90;94.90;;;;;;7387287;19;20150;-77
2022/04/17 03:05:37;;;;;;;2.03;1.50;;;8.00;95.60;;;;;;7389976;19;20625;-78
2022/04/17 03:08:11;;;;;;;3.97;1.40;;;8.20;96.20;;;;;;7389953;19;20178;-77
2022/04/17 03:10:47;;;;;;;2.70;1.67;;;8.70;95.30;;;;;;7394071;19;20138;-76
2022/04/17 03:13:14;;;;;;;2.90;1.50;;;9.10;94.40;;;;;;7387829;19;20134;-77
2022/04/17 03:15:40;;;;;;;2.63;1.60;;;9.10;94.30;;;;;;7389088;19;20159;-77
2022/04/17 03:18:08;;;;;;;3.53;1.87;;;9.30;93.80;;;;;;7385949;19;20130;-77
2022/04/17 03:20:35;;;;;;;1.67;1.50;;;9.40;94.00;;;;;;7387633;19;20138;-76
2022/04/17 03:23:02;;;;;;;2.63;1.57;;;9.40;93.60;;;;;;7387534;19;20162;-76
2022/04/17 03:25:29;;;;;;;2.97;1.73;;;9.40;93.90;;;;;;7388825;19;20164;-77
2022/04/17 03:27:57;;;;;;;2.63;1.83;;;9.40;93.40;;;;;;7388193;19;20150;-74
2022/04/17 03:30:23;;;;;;;2.10;1.70;;;9.30;93.70;;;;;;7392182;19;20138;-78
2022/04/17 03:32:52;;;;;;;4.30;2.43;;;9.30;93.70;;;;;;7391239;19;20131;-76
2022/04/17 03:35:21;;;;;;;3.77;2.30;;;9.40;93.60;;;;;;7386937;19;20229;-77
2022/04/17 03:37:48;;;;;;;3.20;2.17;;;9.40;93.50;;;;;;7387379;19;20143;-77
2022/04/17 03:40:16;;;;;;;2.87;2.27;;;9.30;93.70;;;;;;7387165;19;20131;-77
2022/04/17 03:42:42;;;;;;;1.50;1.40;;;9.20;93.90;;;;;;7387770;19;20154;-77
2022/04/17 03:45:17;;;;;;;2.23;1.50;;;8.40;94.30;;;;;;7389959;19;20118;-79
2022/04/17 03:47:43;;;;;;;3.57;1.77;;;8.00;95.60;;;;;;7390722;19;20137;-77
2022/04/17 03:50:10;;;;;;;1.63;1.53;;;7.90;96.20;;;;;;7394334;19;20167;-76
2022/04/17 03:52:47;;;;;;;3.47;1.80;;;8.30;95.90;;;;;;7386395;19;20170;-78
2022/04/17 03:55:14;;;;;;;2.43;1.77;;;8.70;95.40;;;;;;7387986;19;20138;-76
2022/04/17 03:57:40;;;;;;;1.70;1.50;;;8.90;94.90;;;;;;7385698;19;20146;-76
2022/04/17 04:00:10;;;;;;;1.80;1.40;;;9.00;94.80;;;;;;7391070;19;20147;-75
2022/04/17 04:02:36;;;;;;;2.17;1.50;;;9.00;94.90;;;;;;7385887;19;20130;-78
2022/04/17 04:05:02;;;;;;;1.50;1.37;;;9.00;94.50;;;;;;7388153;19;20497;-76
2022/04/17 04:07:28;;;;;;;2.77;1.80;;;9.10;94.50;;;;;;7386884;19;20123;-77
2022/04/17 04:09:54;;;;;;;2.23;1.30;;;9.20;94.30;;;;;;7393059;19;20145;-77
2022/04/17 04:12:20;;;;;;;2.20;1.60;;;9.20;94.00;;;;;;7391796;19;20143;-75
2022/04/17 04:14:45;;;;;;;3.10;1.47;;;8.60;95.00;;;;;;7396757;19;20130;-76
2022/04/17 04:17:11;;;;;;;3.27;1.80;;;8.40;95.10;;;;;;7392185;19;20517;-77
2022/04/17 04:19:37;;;;;;;1.80;1.40;;;8.70;95.30;;;;;;7393688;19;20146;-76
2022/04/17 04:22:03;;;;;;;2.50;1.67;;;9.00;94.80;;;;;;7392453;19;20162;-76
2022/04/17 04:24:31;;;;;;;2.40;1.77;;;9.10;94.40;;;;;;7393742;19;20146;-77
2022/04/17 04:29:41;;;;;;;2.30;1.70;;;8.80;94.90;;;;;;7399313;19;20231;-77
2022/04/17 04:32:07;;;;;;;2.63;1.80;;;8.70;95.00;;;;;;7404312;19;20143;-76
2022/04/17 04:34:33;;;;;;;4.07;1.50;;;8.70;95.00;;;;;;7395063;19;20142;-77
2022/04/17 04:37:00;;;;;;;1.93;1.60;;;8.70;95.20;;;;;;7388650;19;20214;-76
2022/04/17 04:39:27;;;;;;;2.43;1.70;;;8.80;95.10;;;;;;7391250;19;20122;-77
2022/04/17 04:41:53;;;;;;;2.17;1.63;;;8.80;95.20;;;;;;7393307;19;20158;-77
2022/04/17 04:44:19;;;;;;;2.27;1.77;;;8.80;95.30;;;;;;7395274;19;20147;-77
2022/04/17 04:46:45;;;;;;;2.73;1.60;;;8.80;95.40;;;;;;7394861;19;20135;-76
2022/04/17 04:51:55;;;;;;;2.80;1.83;;;8.60;95.30;;;;;;7393771;19;20451;-76
2022/04/17 04:54:21;;;;;;;2.33;1.70;;;8.60;95.70;;;;;;7394448;19;20135;-77
2022/04/17 04:56:46;;;;;;;2.03;1.67;;;8.40;95.50;;;;;;7391592;19;20139;-76
2022/04/17 04:59:12;;;;;;;2.27;1.70;;;8.20;95.90;;;;;;7394895;19;20147;-76
2022/04/17 05:01:38;;;;;;;3.00;1.70;;;8.30;96.00;;;;;;7398671;19;20610;-76
2022/04/17 05:04:04;;;;;;;2.87;1.77;;;8.30;96.00;;;;;;7391188;19;20141;-78
2022/04/17 05:06:30;;;;;;;2.03;1.67;;;8.40;96.10;;;;;;7393129;19;20130;-76
2022/04/17 05:08:55;;;;;;;2.97;1.60;;;8.60;96.20;;;;;;7401742;19;20153;-76
2022/04/17 05:11:21;;;;;;;3.57;1.90;;;8.60;95.80;;;;;;7396947;19;20137;-77
2022/04/17 05:13:47;;;;;;;4.43;1.90;;;8.60;96.00;;;;;;7393856;19;20127;-76
2022/04/17 05:16:13;;;;;;;1.97;1.57;;;8.40;96.10;;;;;;7393034;19;20684;-77
2022/04/17 05:18:39;;;;;;;2.60;1.70;;;8.40;96.30;;;;;;7396668;19;20134;-76
2022/04/17 05:21:08;;;;;;;2.60;1.60;;;8.40;96.30;;;;;;7391046;19;20161;-77
2022/04/17 05:23:36;;;;;;;2.63;1.90;;;8.60;96.20;;;;;;7389713;19;20138;-77
2022/04/17 05:26:03;;;;;;;4.30;1.93;;;8.70;96.00;;;;;;7390649;19;20149;-77
2022/04/17 05:28:29;;;;;;;2.77;2.00;;;8.70;95.90;;;;;;7390621;19;20150;-77
2022/04/17 05:30:55;;;;;;;2.17;1.77;;;8.70;95.70;;;;;;7394568;19;20134;-79
2022/04/17 05:33:22;;;;;;;2.03;1.60;;;8.70;95.60;;;;;;7400681;19;20119;-76
2022/04/17 05:35:49;;;;;;;2.10;1.80;;;8.70;95.50;;;;;;7390468;19;20143;-75
2022/04/17 05:38:15;;;;;;;3.60;1.93;;;8.70;95.70;;;;;;7391152;19;20127;-77
2022/04/17 05:40:51;;;;;;;1.87;1.70;;;8.60;95.60;;;;;;7390713;19;20130;-78
2022/04/17 05:43:19;;;;;;;2.60;1.70;;;8.60;95.80;;;;;;7390629;19;20170;-77
2022/04/17 05:45:46;;;;;;;3.55;2.20;;;8.60;95.70;;;;;;7394355;19;20375;-77
2022/04/17 05:48:13;;;;;;;2.50;1.70;;;8.70;96.00;;;;;;7394532;19;20353;-75
2022/04/17 05:50:38;;;;;;;2.33;1.87;;;8.70;95.80;;;;;;7394898;19;20123;-78
2022/04/17 05:53:05;;;;;;;2.37;2.00;;;8.70;96.00;;;;;;7390038;19;20149;-76
2022/04/17 05:55:31;;;;;;;2.47;1.70;;;8.80;96.10;;;;;;7391550;19;20129;-76
2022/04/17 05:57:57;;;;;;;2.17;1.70;;;8.90;95.70;;;;;;7389391;19;20131;-75
2022/04/17 06:00:23;;;;;;;2.10;1.80;;;8.90;95.50;;;;;;7390425;19;20452;-74
2022/04/17 06:02:49;;;;;;;2.53;1.60;;;8.90;95.50;;;;;;7392764;19;20158;-75
2022/04/17 06:05:17;;;;;;;2.47;1.73;;;8.90;95.20;;;;;;7393415;19;20154;-76
2022/04/17 06:07:43;;;;;;;2.93;1.70;;;9.00;94.90;;;;;;7391378;19;20162;-74
2022/04/17 06:10:11;;;;;;;2.50;2.00;;;9.10;94.80;;;;;;7406613;19;20131;-75
2022/04/17 06:12:38;;;;;;;2.23;1.43;;;9.10;94.40;;;;;;7399827;19;20146;-76
2022/04/17 06:15:05;;;;;;;1.80;1.60;;;9.00;94.40;;;;;;7390062;19;20237;-76
2022/04/17 06:17:39;;;;;;;1.97;1.63;;;9.00;94.30;;;;;;7391832;19;20226;-75
2022/04/17 06:20:07;;;;;;;2.97;1.70;;;9.00;94.30;;;;;;7392885;19;20141;-75
2022/04/17 06:22:35;;;;;;;2.33;1.63;;;9.10;94.20;;;;;;7393402;19;20135;-76
2022/04/17 06:25:03;;;;;;;2.33;1.33;;;9.10;93.90;;;;;;7388506;19;20181;-75
2022/04/17 06:27:36;;;;;;;2.23;1.67;;;9.10;93.90;;;;;;7392598;19;20154;-75
2022/04/17 06:30:15;;;;;;;3.17;1.60;;;9.10;94.10;;;;;;7390505;19;20170;-76
2022/04/17 06:32:42;;;;;;;2.70;1.80;;;9.30;94.00;;;;;;7392362;19;20243;-78
2022/04/17 06:35:09;;;;;;;3.83;1.60;;;9.30;94.00;;;;;;7386617;19;20467;-77
2022/04/17 06:37:54;;;;;;;2.50;1.50;;;9.40;93.80;;;;;;7390182;19;20158;-74
2022/04/17 06:40:25;;;;;;;2.53;1.63;;;9.50;93.60;;;;;;7390444;19;20218;-76
2022/04/17 06:42:54;;;;;;;3.30;1.60;;;9.40;93.80;;;;;;7389444;19;20822;-74
2022/04/17 06:45:21;;;;;;;1.73;1.30;;;9.40;93.60;;;;;;7391645;19;20145;-75
2022/04/17 06:47:47;;;;;;;1.40;1.30;;;9.50;93.50;;;;;;7388207;19;20221;-73
2022/04/17 06:50:15;;;;;;;2.67;1.50;;;9.60;93.30;;;;;;7387659;19;20212;-75
2022/04/17 06:52:41;;;;;;;2.87;1.70;;;9.60;93.40;;;;;;7393233;19;20165;-76
2022/04/17 06:55:11;;;;;;;2.13;1.60;;;9.60;93.40;;;;;;7397675;19;20151;-77
2022/04/17 06:57:39;;;;;;;1.80;1.30;;;9.80;93.30;;;;;;7389801;19;20587;-77
2022/04/17 07:00:12;;;;;;;1.70;1.50;;;9.80;93.50;;;;;;7391111;19;20151;-75
2022/04/17 07:02:39;;;;;;;1.53;1.23;;;10.10;92.70;;;;;;7388736;19;20150;-77
2022/04/17 07:05:06;;;;;;;1.90;1.50;;;10.30;92.50;;;;;;7391595;19;20167;-78
2022/04/17 07:07:32;;;;;;;3.47;1.33;;;10.50;92.10;;;;;;7392696;19;21683;-73
2022/04/17 07:09:58;;;;;;;2.27;1.40;;;10.80;92.20;;;;;;7389913;19;20157;-77
2022/04/17 07:12:24;;;;;;;2.17;1.40;;;11.10;91.60;;;;;;7396897;19;20210;-75
2022/04/17 07:14:50;;;;;;;1.87;1.23;;;11.60;91.40;;;;;;7389691;19;20568;-76
2022/04/17 07:17:16;;;;;;;3.00;1.50;;;12.20;90.40;;;;;;7392215;19;20135;-76
2022/04/17 07:19:44;;;;;;;2.13;1.50;;;12.70;90.00;;;;;;7389663;19;20613;-77
2022/04/17 07:22:13;;;;;;;2.07;1.30;;;13.10;88.60;;;;;;7391816;19;20135;-77
2022/04/17 07:24:40;;;;;;;1.70;1.33;;;13.50;87.90;;;;;;7390311;19;20138;-78
2022/04/17 07:27:07;;;;;;;1.70;1.37;;;13.60;86.60;;;;;;7389729;19;20139;-75
2022/04/17 07:29:32;;;;;;;2.17;1.33;;;14.00;85.10;;;;;;7386688;19;20163;-74
2022/04/17 07:31:58;;;;;;;2.70;1.20;;;14.40;83.20;;;;;;7391761;19;20827;-74
2022/04/17 07:34:25;;;;;;;2.78;1.50;;;14.50;81.80;;;;;;7393188;19;20905;-76
2022/04/17 07:36:52;;;;;;;1.40;1.20;;;14.30;80.80;;;;;;7393362;19;20135;-77
2022/04/17 07:39:19;;;;;;;2.47;1.50;;;14.40;81.70;;;;;;7391737;19;20142;-76
2022/04/17 07:41:48;;;;;;;2.53;1.70;;;14.60;81.30;;;;;;7388539;19;20155;-76
2022/04/17 07:44:14;;;;;;;1.57;1.17;;;14.90;82.00;;;;;;7390834;19;20164;-78
2022/04/17 07:46:42;;;;;;;2.17;1.10;;;15.20;80.60;;;;;;7389247;19;20206;-79
2022/04/17 07:49:09;;;;;;;2.07;1.40;;;15.30;80.50;;;;;;7391999;19;20141;-74
2022/04/17 07:51:35;;;;;;;2.17;1.20;;;15.10;80.60;;;;;;7390640;19;20160;-79
2022/04/17 07:54:02;;;;;;;1.70;1.30;;;15.10;79.00;;;;;;7392950;19;20143;-79
2022/04/17 07:56:28;;;;;;;1.20;1.10;;;15.20;78.00;;;;;;7386869;19;20162;-78
2022/04/17 07:58:54;;;;;;;1.20;1.00;;;15.00;76.10;;;;;;7389513;19;20512;-75
2022/04/17 08:01:21;;;;;;;3.53;1.17;;;15.00;76.10;;;;;;7385030;19;20130;-74
2022/04/17 08:03:47;;;;;;;1.93;1.30;;;15.20;75.70;;;;;;7388789;19;20147;-75
2022/04/17 08:06:20;;;;;;;2.20;1.00;;;15.00;75.50;;;;;;7386681;19;20141;-75
2022/04/17 08:08:46;;;;;;;2.17;1.40;;;15.30;75.80;;;;;;7387353;19;20165;-78
2022/04/17 08:11:13;;;;;;;1.83;1.20;;;15.50;75.40;;;;;;7388105;19;20418;-75
2022/04/17 08:13:39;;;;;;;1.63;1.17;;;15.60;74.90;;;;;;7387997;19;20142;-72
2022/04/17 08:16:06;;;;;;;3.70;1.25;;;15.30;75.40;;;;;;7386835;19;20506;-74
2022/04/17 08:18:36;;;;;;;2.00;1.20;;;15.40;75.50;;;;;;7386849;19;20705;-71
2022/04/17 08:21:04;;;;;;;1.50;1.00;;;15.30;76.60;;;;;;7388338;19;20148;-73
2022/04/17 08:23:30;;;;;;;2.13;1.00;;;15.50;75.80;;;;;;7385772;19;20157;-74
2022/04/17 08:25:56;;;;;;;1.93;1.27;;;15.40;75.70;;;;;;7386557;19;20157;-70
2022/04/17 08:28:22;;;;;;;3.60;1.30;;;14.90;77.40;;;;;;7388670;19;20142;-71
2022/04/17 08:30:49;;;;;;;1.43;1.30;;;14.60;77.90;;;;;;7388398;19;20674;-76
2022/04/17 08:33:16;;;;;;;1.33;1.07;;;14.60;77.10;;;;;;7387519;19;20134;-71
2022/04/17 08:35:42;;;;;;;1.10;1.00;;;14.50;78.40;;;;;;7386091;19;20504;-71
2022/04/17 08:38:08;;;;;;;1.63;1.10;;;14.40;79.30;;;;;;7385436;19;20135;-71
2022/04/17 08:40:34;;;;;;;1.40;1.00;;;14.20;79.70;;;;;;7381790;19;20154;-72
2022/04/17 08:43:00;;;;;;;2.60;1.20;;;14.10;80.90;;;;;;7378651;19;20142;-75
2022/04/17 08:45:26;;;;;;;1.97;1.30;;;14.20;79.70;;;;;;7382435;19;20498;-72
2022/04/17 08:47:54;;;;;;;3.40;1.40;;;14.10;80.20;;;;;;7381866;19;20218;-74
2022/04/17 08:50:21;;;;;;;2.50;1.60;;;14.10;81.00;;;;;;7383018;19;20151;-73
2022/04/17 08:52:49;;;;;;;1.80;1.20;;;14.10;80.40;;;;;;7384713;19;20496;-75
2022/04/17 08:55:15;;;;;;;2.40;1.23;;;14.20;80.50;;;;;;7386858;19;20142;-71
2022/04/17 08:57:42;;;;;;;2.90;1.10;;;14.10;81.10;;;;;;7394491;19;20123;-72
2022/04/17 09:00:11;;;;;;;2.03;1.40;;;13.90;80.60;;;;;;7396172;19;20151;-72
2022/04/17 09:02:38;;;;;;;2.97;1.37;;;14.20;80.10;;;;;;7393914;19;20286;-76
2022/04/17 09:05:05;;;;;;;1.77;1.10;;;14.40;80.00;;;;;;7391052;19;20466;-73
2022/04/17 09:07:49;;;;;;;1.90;1.27;;;14.20;79.70;;;;;;7391500;19;20574;-75
2022/04/17 09:10:29;;;;;;;1.27;1.00;;;14.20;80.40;;;;;;7394693;19;20135;-76
2022/04/17 09:13:00;;;;;;;2.20;1.20;;;14.20;80.60;;;;;;7390794;19;20189;-72
2022/04/17 09:15:28;;;;;;;1.00;0.90;;;14.30;80.00;;;;;;7393796;19;20160;-74
2022/04/17 09:17:54;;;;;;;1.97;1.23;;;14.20;79.90;;;;;;7391097;19;20154;-75
2022/04/17 09:20:22;;;;;;;2.75;1.10;;;14.30;79.40;;;;;;7393135;19;20130;-71
2022/04/17 09:22:59;;;;;;;1.08;1.00;;;14.40;80.00;;;;;;7397369;19;20642;-72
2022/04/17 09:25:26;;;;;;;1.10;0.83;;;14.40;79.70;;;;;;7392055;19;20211;-74
2022/04/17 09:28:07;;;;;;;2.78;0.85;;;14.40;75.70;;;;;;7390861;19;20123;-74
2022/04/17 09:30:46;;;;;;;2.27;1.00;;;14.50;74.90;;;;;;7390968;19;20556;-73
2022/04/17 09:33:13;;;;;;;1.37;0.93;;;14.50;74.40;;;;;;7392696;19;20138;-71
2022/04/17 09:35:40;;;;;;;1.13;1.00;;;14.50;74.50;;;;;;7393189;19;20142;-72
2022/04/17 09:38:08;;;;;;;2.97;1.27;;;14.40;74.70;;;;;;7394117;19;20143;-72
2022/04/17 09:40:36;;;;;;;1.10;1.00;;;14.30;75.20;;;;;;7393752;19;20522;-71
2022/04/17 09:43:18;;;;;;;2.60;1.00;;;14.30;75.80;;;;;;7389317;19;20546;-74
2022/04/17 09:46:00;;;;;;;1.83;1.00;;;14.40;76.10;;;;;;7394954;19;20170;-76
2022/04/17 09:48:32;;;;;;;1.70;0.97;;;14.50;76.80;;;;;;7395837;19;20138;-71
2022/04/17 09:50:58;;;;;;;1.30;1.00;;;14.70;75.30;;;;;;7392826;19;20170;-71
2022/04/17 09:53:35;;;;;;;1.50;1.00;;;14.60;76.00;;;;;;7391036;19;20139;-74
2022/04/17 09:56:09;;;;;;;2.07;1.10;;;14.80;75.70;;;;;;7392055;19;20138;-72
2022/04/17 09:58:45;;;;;;;1.40;0.98;;;14.90;75.50;;;;;;7392338;19;20138;-73
2022/04/17 10:01:15;;;;;;;3.20;1.23;;;14.90;74.80;;;;;;7391828;19;20245;-73
2022/04/17 10:03:41;;;;;;;0.95;0.80;;;14.90;76.40;;;;;;7394242;19;20151;-74
2022/04/17 10:06:10;;;;;;;2.47;1.10;;;15.00;74.40;;;;;;7393974;19;20146;-71
2022/04/17 10:08:37;;;;;;;1.37;1.00;;;14.90;75.20;;;;;;7388893;19;20169;-71
2022/04/17 10:11:04;;;;;;;1.80;1.20;;;15.10;75.30;;;;;;7391815;19;20477;-73
2022/04/17 10:13:32;;;;;;;1.27;1.10;;;15.10;75.30;;;;;;7389178;19;20131;-71
2022/04/17 10:16:03;;;;;;;1.05;0.63;;;15.20;74.70;;;;;;7392658;19;20143;-73
2022/04/17 10:18:34;;;;;;;1.65;0.90;;;15.20;74.10;;;;;;7388138;19;20145;-72
2022/04/17 10:21:01;;;;;;;1.90;0.77;;;15.30;74.10;;;;;;7389497;19;20139;-77
2022/04/17 10:23:29;;;;;;;1.27;0.82;;;15.30;73.90;;;;;;7390000;19;20606;-77
2022/04/17 10:25:58;;;;;;;2.10;1.20;;;15.20;74.20;;;;;;7395368;19;20497;-77
2022/04/17 10:28:29;;;;;;;1.42;0.80;;;15.20;74.20;;;;;;7388187;19;20351;-77
2022/04/17 10:31:14;;;;;;;1.67;0.80;;;15.10;75.90;;;;;;7388253;19;20154;-77
2022/04/17 10:33:59;;;;;;;1.05;0.80;;;15.20;74.30;;;;;;7390533;19;20158;-77
2022/04/17 10:36:41;;;;;;;2.92;0.90;;;15.30;74.80;;;;;;7385977;19;20143;-77
2022/04/17 10:39:18;;;;;;;1.48;0.80;;;15.40;74.30;;;;;;7391699;19;20154;-76
2022/04/17 10:41:44;;;;;;;1.90;1.05;;;15.50;73.50;;;;;;7389859;19;20229;-77
2022/04/17 10:44:11;;;;;;;1.70;1.17;;;15.50;74.40;;;;;;7391509;19;20618;-75
2022/04/17 10:46:51;;;;;;;2.35;1.00;;;15.50;72.20;;;;;;7394013;19;20134;-77
2022/04/17 10:49:22;;;;;;;1.10;0.77;;;15.40;71.80;;;;;;7390410;19;20126;-77
2022/04/17 10:51:59;;;;;;;0.60;0.60;;;15.40;72.60;;;;;;7389369;19;20154;-77
2022/04/17 10:54:45;;;;;;;1.92;0.90;;;15.60;72.70;;;;;;7391048;19;20138;-77
2022/04/17 10:57:11;;;;;;;1.00;0.85;;;15.70;71.20;;;;;;7385277;19;20681;-77
2022/04/17 10:59:37;;;;;;;0.68;0.60;;;15.70;72.30;;;;;;7386856;19;20130;-76
2022/04/17 11:02:07;;;;;;;0.70;0.70;;;15.70;71.20;;;;;;7387189;19;20594;-76
2022/04/17 11:04:55;;;;;;;1.50;0.88;;;15.70;70.60;;;;;;7391546;19;20237;-76
2022/04/17 11:07:27;;;;;;;1.73;1.00;;;15.70;69.20;;;;;;7391041;19;20147;-76
2022/04/17 11:10:20;;;;;;;1.38;0.82;;;15.50;69.00;;;;;;7391418;19;20142;-76
2022/04/17 11:12:50;;;;;;;1.13;0.80;;;15.50;70.10;;;;;;7387735;19;20126;-77
2022/04/17 11:15:17;;;;;;;0.80;0.80;;;15.70;69.90;;;;;;7389981;19;20138;-77
2022/04/17 11:17:46;;;;;;;0.80;0.75;;;15.90;69.30;;;;;;7389641;19;20137;-77
2022/04/17 11:20:13;;;;;;;1.55;0.90;;;16.00;68.70;;;;;;7387540;19;20139;-77
2022/04/17 11:22:39;;;;;;;0.77;0.70;;;16.00;68.90;;;;;;7391501;19;20151;-78
2022/04/17 11:25:12;;;;;;;2.97;0.80;;;16.10;69.40;;;;;;7387554;19;20135;-78
2022/04/17 11:27:49;;;;;;;1.10;0.93;;;16.10;68.20;;;;;;7387925;19;20127;-77
2022/04/17 11:30:17;;;;;;;1.98;0.82;;;16.20;68.50;;;;;;7395982;19;20135;-77
2022/04/17 11:32:43;;;;;;;1.05;0.73;;;16.20;67.90;;;;;;7393939;19;20131;-78
2022/04/17 11:35:12;;;;;;;0.70;0.65;;;16.10;68.60;;;;;;7388022;19;20613;-77
2022/04/17 11:37:38;;;;;;;1.00;0.70;;;16.30;67.60;;;;;;7386471;19;20202;-78
2022/04/17 11:40:11;;;;;;;0.88;0.60;;;16.30;67.40;;;;;;7389401;19;20134;-78
2022/04/17 11:42:46;;;;;;;1.88;0.93;;;16.20;68.20;;;;;;7385264;19;20158;-78
2022/04/17 11:45:15;;;;;;;1.05;0.70;;;16.30;68.70;;;;;;7387617;19;20483;-77
2022/04/17 11:47:43;;;;;;;1.83;0.80;;;16.40;68.70;;;;;;7385748;19;20482;-79
2022/04/17 11:50:11;;;;;;;1.65;0.80;;;16.50;68.70;;;;;;7388214;19;20138;-77
2022/04/17 11:52:38;;;;;;;2.00;0.90;;;16.40;68.10;;;;;;7391406;19;20219;-79
2022/04/17 11:55:07;;;;;;;2.33;0.90;;;16.40;68.60;;;;;;7393294;19;20154;-78
2022/04/17 11:57:36;;;;;;;1.73;1.20;;;16.50;67.30;;;;;;7385367;19;20157;-80
2022/04/17 12:00:02;;;;;;;1.35;1.10;;;16.70;66.80;;;;;;7388163;19;20504;-77
2022/04/17 12:02:29;;;;;;;1.25;0.88;;;16.80;65.90;;;;;;7386569;19;20252;-78
2022/04/17 12:05:17;;;;;;;1.08;0.90;;;16.80;66.80;;;;;;7385653;19;20170;-77
2022/04/17 12:07:44;;;;;;;2.67;1.05;;;16.80;66.80;;;;;;7387441;19;20154;-79
2022/04/17 12:10:13;;;;;;;1.70;0.95;;;16.90;67.80;;;;;;7385897;19;20134;-78
2022/04/17 12:12:43;;;;;;;3.50;1.50;;;16.90;67.20;;;;;;7386397;19;20501;-78
2022/04/17 12:15:11;;;;;;;0.93;0.90;;;16.90;67.80;;;;;;7391303;19;20157;-79
2022/04/17 12:17:37;;;;;;;0.80;0.80;;;16.90;66.60;;;;;;7388782;19;20207;-78
2022/04/17 12:20:08;;;;;;;1.95;1.00;;;16.90;65.90;;;;;;7384359;19;20177;-77
2022/04/17 12:22:39;;;;;;;6.78;4.70;;;17.00;66.30;;;;;;7386115;19;20141;-77
2022/04/17 12:25:15;;;;;;;1.23;1.08;;;16.90;66.40;;;;;;7386662;19;20127;-77
2022/04/17 12:27:41;;;;;;;1.05;0.90;;;16.90;66.70;;;;;;7384403;19;20229;-76
2022/04/17 12:30:07;;;;;;;1.10;0.80;;;16.90;67.60;;;;;;7382760;19;20670;-76
2022/04/17 12:32:44;;;;;;;1.50;1.08;;;16.90;67.50;;;;;;7388205;19;20151;-77
2022/04/17 12:35:14;;;;;;;0.90;0.82;;;17.00;67.20;;;;;;7394915;19;20130;-77
2022/04/17 12:37:40;;;;;;;0.70;0.60;;;17.20;67.30;;;;;;7399621;19;20142;-77
2022/04/17 12:40:06;;;;;;;1.27;0.90;;;17.20;66.30;;;;;;7392423;19;20142;-77
2022/04/17 12:42:32;;;;;;;2.47;1.23;;;17.20;66.70;;;;;;7392400;19;20155;-78
2022/04/17 12:44:58;;;;;;;1.17;1.00;;;17.30;65.80;;;;;;7393904;19;20153;-77
2022/04/17 12:47:23;;;;;;;0.82;0.75;;;17.30;65.20;;;;;;7393015;19;20637;-76
2022/04/17 12:49:49;;;;;;;1.27;0.77;;;17.30;66.90;;;;;;7391936;19;20775;-75
2022/04/17 12:52:22;;;;;;;1.48;1.00;;;17.20;67.00;;;;;;7392734;19;20282;-75
2022/04/17 12:54:48;;;;;;;1.40;1.08;;;17.40;66.90;;;;;;7397988;19;20513;-75
2022/04/17 12:57:20;;;;;;;3.75;1.08;;;17.40;66.90;;;;;;7390983;19;20728;-76
2022/04/17 12:59:52;;;;;;;2.97;0.80;;;17.40;66.60;;;;;;7395519;19;20524;-75
2022/04/17 13:02:28;;;;;;;1.45;0.70;;;17.30;65.50;;;;;;7391531;19;20210;-75
2022/04/17 13:04:57;;;;;;;2.03;1.17;;;17.30;66.00;;;;;;7394185;19;20813;-77
2022/04/17 13:07:30;;;;;;;3.88;1.20;;;17.20;66.60;;;;;;7393338;19;20139;-77